Time;durP1;ratioP1;P1;durP2;ratioP2;P2;SDS_P1;SDS_P2;PMS_P1;PMS_P2;Temp;Humidity;BMP_temperature;BMP_pressure;BME280_temperature;BME280_humidity;BME280_pressure;Samples;Min_cycle;Max_cycle;Signal;HPM_P1;HPM_P2
2022/11/18 00:00:49;;;;;;;0.50;0.50;;;;;;;2.67;75.35;100303.25;5068752;28;20476;-73
2022/11/18 00:03:15;;;;;;;0.60;0.60;;;;;;;2.64;75.30;100299.72;5068984;28;20087;-74
2022/11/18 00:05:41;;;;;;;0.50;0.50;;;;;;;2.81;75.29;100321.47;5068959;28;20029;-73
2022/11/18 00:08:06;;;;;;;0.52;0.52;;;;;;;2.75;75.22;100311.09;5068560;28;20025;-74
2022/11/18 00:10:31;;;;;;;0.60;0.60;;;;;;;2.71;75.43;100299.06;5068620;28;20021;-75
2022/11/18 00:15:41;;;;;;;0.50;0.50;;;;;;;2.67;75.30;100297.25;5068858;28;20112;-73
2022/11/18 00:18:06;;;;;;;0.50;0.50;;;;;;;2.68;75.43;100302.44;5068690;28;20041;-73
2022/11/18 00:20:33;;;;;;;0.60;0.60;;;;;;;2.60;75.70;100303.94;5050614;28;20036;-73
2022/11/18 00:22:58;;;;;;;0.60;0.60;;;;;;;2.47;76.08;100295.97;5068469;28;20103;-73
2022/11/18 00:25:24;;;;;;;0.60;0.60;;;;;;;2.49;76.30;100303.69;5068314;28;20092;-74
2022/11/18 00:27:49;;;;;;;0.50;0.50;;;;;;;2.51;76.22;100296.03;5050399;28;20017;-73
2022/11/18 00:30:15;;;;;;;0.60;0.60;;;;;;;2.47;76.33;100305.34;5068046;28;20036;-73
2022/11/18 00:32:40;;;;;;;0.50;0.50;;;;;;;2.53;76.42;100314.88;5068392;28;20059;-72
2022/11/18 00:35:06;;;;;;;0.50;0.50;;;;;;;2.45;76.53;100301.88;5051302;28;20021;-72
2022/11/18 00:37:32;;;;;;;0.50;0.50;;;;;;;2.47;76.65;100298.53;5050472;28;20021;-73
2022/11/18 00:39:58;;;;;;;0.50;0.50;;;;;;;2.50;76.72;100299.41;5050371;28;20084;-71
2022/11/18 00:45:07;;;;;;;0.52;0.52;;;;;;;2.55;76.40;100311.53;5068386;28;20051;-73
2022/11/18 00:47:33;;;;;;;0.50;0.50;;;;;;;2.46;76.94;100313.88;5068296;28;20013;-73
2022/11/18 00:49:58;;;;;;;0.50;0.50;;;;;;;2.47;76.63;100306.22;5067842;28;20073;-73
2022/11/18 00:52:23;;;;;;;0.50;0.50;;;;;;;2.51;76.65;100321.69;5067789;28;20032;-74
2022/11/18 00:54:49;;;;;;;0.50;0.50;;;;;;;2.48;76.31;100314.75;5068732;28;20029;-75
2022/11/18 00:57:14;;;;;;;0.50;0.50;;;;;;;2.45;76.61;100317.25;5067886;28;20021;-74
2022/11/18 00:59:39;;;;;;;0.50;0.50;;;;;;;2.52;76.47;100323.41;5067729;28;20029;-74
2022/11/18 01:02:04;;;;;;;0.50;0.50;;;;;;;2.52;76.35;100323.41;5067885;28;20041;-73
2022/11/18 01:04:30;;;;;;;0.50;0.50;;;;;;;2.54;75.96;100322.59;5067743;28;20048;-70
2022/11/18 01:06:55;;;;;;;0.50;0.50;;;;;;;2.45;76.01;100323.25;5049385;28;20025;-73
2022/11/18 01:09:21;;;;;;;0.50;0.50;;;;;;;2.32;76.26;100324.66;5067602;28;20092;-73
2022/11/18 01:14:30;;;;;;;0.50;0.50;;;;;;;2.29;76.54;100321.16;5067593;28;20032;-73
2022/11/18 01:16:56;;;;;;;0.52;0.52;;;;;;;2.28;76.23;100321.97;5067623;28;20029;-73
2022/11/18 01:19:22;;;;;;;0.50;0.50;;;;;;;2.37;76.00;100329.88;5067595;28;20052;-73
2022/11/18 01:21:48;;;;;;;0.70;0.70;;;;;;;2.30;76.14;100331.44;5067808;28;20020;-73
2022/11/18 01:24:14;;;;;;;0.60;0.60;;;;;;;2.37;75.94;100329.88;5067712;28;20111;-73
2022/11/18 01:26:39;;;;;;;0.50;0.50;;;;;;;2.45;75.52;100336.06;5067330;28;20013;-74
2022/11/18 01:29:04;;;;;;;0.50;0.50;;;;;;;2.34;75.56;100342.63;5067242;28;20031;-72
2022/11/18 01:31:30;;;;;;;0.50;0.50;;;;;;;2.26;75.97;100345.00;5067352;28;20029;-74
2022/11/18 01:33:55;;;;;;;0.50;0.50;;;;;;;2.29;75.97;100349.31;5067098;28;20032;-73
2022/11/18 01:36:23;;;;;;;0.50;0.50;;;;;;;2.26;75.82;100342.44;5048985;28;20029;-72
2022/11/18 01:38:50;;;;;;;0.50;0.50;;;;;;;2.26;76.09;100356.94;5067307;28;20024;-74
2022/11/18 01:41:16;;;;;;;0.50;0.50;;;;;;;2.29;75.94;100342.50;5066981;28;20036;-74
2022/11/18 01:43:57;;;;;;;0.50;0.50;;;;;;;2.31;76.12;100343.44;5066817;28;20031;-71
2022/11/18 01:46:25;;;;;;;0.55;0.55;;;;;;;2.32;75.94;100339.16;5067136;28;20543;-73
2022/11/18 01:49:13;;;;;;;0.55;0.55;;;;;;;2.31;75.75;100329.75;5066627;28;20079;-73
2022/11/18 01:51:48;;;;;;;0.60;0.60;;;;;;;2.46;75.12;100339.50;5067048;28;20163;-74
2022/11/18 01:54:23;;;;;;;0.50;0.50;;;;;;;2.38;75.37;100346.97;5049005;28;20029;-73
2022/11/18 01:56:52;;;;;;;0.50;0.50;;;;;;;2.29;75.41;100322.03;5066649;28;20112;-72
2022/11/18 01:59:22;;;;;;;0.52;0.52;;;;;;;2.35;75.26;100349.47;5066721;28;20032;-74
2022/11/18 02:01:48;;;;;;;0.50;0.50;;;;;;;2.36;75.07;100343.53;5066934;28;20025;-73
2022/11/18 02:04:14;;;;;;;0.50;0.50;;;;;;;2.35;75.01;100329.84;5066777;28;20343;-74
2022/11/18 02:06:41;;;;;;;0.60;0.60;;;;;;;2.42;74.86;100341.13;5048544;28;20024;-74
2022/11/18 02:09:06;;;;;;;0.60;0.60;;;;;;;2.44;74.89;100347.16;5067156;28;20025;-73
2022/11/18 02:11:50;;;;;;;0.50;0.50;;;;;;;2.41;74.52;100334.25;5048582;28;20059;-74
2022/11/18 02:14:19;;;;;;;0.57;0.57;;;;;;;2.41;74.40;100331.69;5066357;28;20056;-74
2022/11/18 02:17:06;;;;;;;0.50;0.50;;;;;;;2.34;74.66;100350.31;5066363;28;20029;-74
2022/11/18 02:19:39;;;;;;;0.50;0.50;;;;;;;2.29;74.66;100342.50;5060574;28;20048;-73
2022/11/18 02:22:29;;;;;;;0.60;0.60;;;;;;;2.35;74.46;100354.59;5066253;28;20028;-71
2022/11/18 02:25:07;;;;;;;0.50;0.50;;;;;;;2.25;74.47;100344.97;5066317;28;20051;-73
2022/11/18 02:27:47;;;;;;;0.50;0.50;;;;;;;2.32;74.53;100351.97;5066348;28;20420;-73
2022/11/18 02:30:15;;;;;;;0.60;0.60;;;;;;;2.22;74.80;100356.84;5066144;28;20035;-74
2022/11/18 02:33:04;;;;;;;0.52;0.52;;;;;;;2.28;74.88;100345.03;5064799;28;20074;-73
2022/11/18 02:35:35;;;;;;;0.50;0.50;;;;;;;2.18;74.85;100341.38;5056488;28;20037;-73
2022/11/18 02:38:09;;;;;;;0.70;0.70;;;;;;;2.22;74.83;100341.50;5065895;28;20040;-73
2022/11/18 02:40:37;;;;;;;0.50;0.50;;;;;;;2.15;75.13;100346.44;5064516;28;20052;-73
2022/11/18 02:43:10;;;;;;;0.50;0.50;;;;;;;2.11;75.32;100345.47;5066098;28;20423;-72
2022/11/18 02:45:40;;;;;;;0.60;0.60;;;;;;;2.03;75.34;100334.19;5064887;28;20028;-72
2022/11/18 02:48:09;;;;;;;0.50;0.50;;;;;;;1.91;75.90;100325.38;5066246;28;20076;-73
2022/11/18 02:50:37;;;;;;;0.50;0.50;;;;;;;1.92;76.08;100346.69;5065775;28;20035;-72
2022/11/18 02:53:06;;;;;;;0.60;0.60;;;;;;;1.88;76.21;100342.34;5065558;28;20040;-72
2022/11/18 02:55:35;;;;;;;0.50;0.50;;;;;;;1.85;76.55;100350.81;5065718;28;20028;-74
2022/11/18 02:58:02;;;;;;;0.50;0.50;;;;;;;1.83;76.88;100353.31;5047670;28;20045;-73
2022/11/18 03:00:27;;;;;;;0.60;0.60;;;;;;;1.83;76.98;100350.78;5065460;28;20044;-73
2022/11/18 03:02:53;;;;;;;0.50;0.50;;;;;;;1.84;77.08;100347.38;5065653;28;20029;-74
2022/11/18 03:05:45;;;;;;;0.50;0.50;;;;;;;2.04;76.63;100356.41;5064350;28;20024;-74
2022/11/18 03:08:21;;;;;;;0.60;0.60;;;;;;;1.96;76.60;100354.53;5065856;28;20033;-73
2022/11/18 03:11:09;;;;;;;0.50;0.50;;;;;;;1.79;76.55;100345.53;5065256;28;20358;-73
2022/11/18 03:13:50;;;;;;;0.60;0.60;;;;;;;1.84;76.43;100351.63;5065878;28;20061;-74
2022/11/18 03:16:25;;;;;;;0.60;0.60;;;;;;;1.82;76.52;100366.94;5065237;28;20034;-73
2022/11/18 03:19:14;;;;;;;0.60;0.60;;;;;;;1.82;76.50;100361.81;5065216;28;20048;-72
2022/11/18 03:21:44;;;;;;;0.60;0.60;;;;;;;1.79;76.34;100360.88;5065561;28;20028;-73
2022/11/18 03:24:28;;;;;;;0.50;0.50;;;;;;;1.80;76.82;100373.72;5065858;28;20028;-73
2022/11/18 03:27:04;;;;;;;0.60;0.60;;;;;;;1.81;76.95;100380.56;5063962;28;20031;-74
2022/11/18 03:29:35;;;;;;;0.50;0.50;;;;;;;1.89;76.70;100385.00;5065200;28;20049;-74
2022/11/18 03:32:11;;;;;;;0.70;0.70;;;;;;;1.90;76.66;100377.38;5064311;28;20036;-73
2022/11/18 03:34:42;;;;;;;0.50;0.50;;;;;;;1.97;76.68;100370.72;5063929;28;20029;-71
2022/11/18 03:37:11;;;;;;;0.45;0.45;;;;;;;2.08;76.27;100379.56;5064986;28;20021;-72
2022/11/18 03:39:43;;;;;;;0.57;0.57;;;;;;;2.08;76.17;100386.38;5065284;28;20056;-73
2022/11/18 03:42:18;;;;;;;;;;;;;;;2.15;76.03;100395.09;5065619;28;20083;-72
2022/11/18 03:44:51;;;;;;;0.50;0.50;;;;;;;2.11;75.80;100394.13;5065128;28;19915;-72
2022/11/18 03:47:21;;;;;;;0.60;0.60;;;;;;;2.08;75.93;100389.81;5065326;28;20109;-72
2022/11/18 03:49:55;;;;;;;0.60;0.60;;;;;;;2.12;76.11;100398.44;5064819;28;20036;-72
2022/11/18 03:52:27;;;;;;;0.57;0.57;;;;;;;2.17;75.99;100403.69;5063417;28;20024;-72
2022/11/18 03:54:55;;;;;;;0.60;0.60;;;;;;;2.20;75.59;100389.28;5065090;28;20029;-72
2022/11/18 03:57:37;;;;;;;0.60;0.60;;;;;;;2.18;75.70;100395.16;5064827;28;20134;-72
2022/11/18 04:00:07;;;;;;;0.60;0.60;;;;;;;2.22;75.23;100397.00;5063375;28;20116;-72
2022/11/18 04:02:34;;;;;;;0.50;0.50;;;;;;;2.22;75.18;100397.84;5063401;28;20028;-72
2022/11/18 04:05:01;;;;;;;0.60;0.60;;;;;;;2.16;75.59;100407.94;5063326;28;20025;-73
2022/11/18 04:07:48;;;;;;;0.60;0.60;;;;;;;2.27;75.07;100417.63;5064550;28;20314;-72
2022/11/18 04:10:18;;;;;;;0.45;0.45;;;;;;;2.25;75.11;100416.69;5064822;28;20051;-74
2022/11/18 04:12:52;;;;;;;0.50;0.50;;;;;;;2.22;75.21;100417.50;5065155;28;20105;-73
2022/11/18 04:15:18;;;;;;;0.50;0.50;;;;;;;2.21;74.90;100416.63;5065011;28;20040;-74
2022/11/18 04:17:44;;;;;;;0.52;0.52;;;;;;;2.28;75.07;100427.91;5064541;28;20017;-72
2022/11/18 04:20:18;;;;;;;0.50;0.50;;;;;;;2.34;74.76;100430.63;5064710;28;20477;-72
2022/11/18 04:22:44;;;;;;;0.60;0.60;;;;;;;2.34;74.62;100428.06;5064556;28;20048;-71
2022/11/18 04:25:09;;;;;;;0.50;0.50;;;;;;;2.32;74.78;100433.94;5064815;28;20036;-74
2022/11/18 04:27:35;;;;;;;0.60;0.60;;;;;;;2.31;74.77;100438.22;5063309;28;20014;-73
2022/11/18 04:30:00;;;;;;;0.60;0.60;;;;;;;2.29;74.63;100439.88;5064615;28;20060;-73
2022/11/18 04:32:26;;;;;;;0.57;0.57;;;;;;;2.28;74.25;100435.59;5064910;28;20045;-71
2022/11/18 04:34:51;;;;;;;0.60;0.60;;;;;;;2.29;74.45;100437.31;5064963;28;20032;-72
2022/11/18 04:37:16;;;;;;;0.50;0.50;;;;;;;2.35;73.80;100439.16;5064565;28;20049;-72
2022/11/18 04:39:42;;;;;;;0.50;0.50;;;;;;;2.25;73.97;100432.94;5063258;28;20033;-72
2022/11/18 04:42:07;;;;;;;0.60;0.60;;;;;;;2.20;73.84;100437.94;5063645;28;20020;-72
2022/11/18 04:44:33;;;;;;;0.60;0.60;;;;;;;2.25;73.55;100438.06;5068211;28;20074;-73
2022/11/18 04:47:01;;;;;;;0.50;0.50;;;;;;;2.19;73.47;100445.59;5068645;28;20040;-73
2022/11/18 04:49:27;;;;;;;0.50;0.50;;;;;;;2.10;73.49;100459.00;5050300;28;20088;-73
2022/11/18 04:51:53;;;;;;;0.50;0.50;;;;;;;2.08;73.39;100455.53;5068446;28;20028;-73
2022/11/18 04:54:19;;;;;;;0.60;0.60;;;;;;;2.12;72.95;100447.13;5068549;28;20025;-72
2022/11/18 04:56:45;;;;;;;0.60;0.60;;;;;;;2.00;73.43;100436.53;5068461;28;20027;-73
2022/11/18 04:59:11;;;;;;;0.60;0.60;;;;;;;2.01;73.23;100448.50;5067914;28;20028;-73
2022/11/18 05:01:36;;;;;;;0.50;0.50;;;;;;;1.96;73.27;100449.25;5068006;28;20025;-74
2022/11/18 05:04:03;;;;;;;0.60;0.60;;;;;;;1.91;73.34;100473.00;5067809;28;20048;-72
2022/11/18 05:06:29;;;;;;;0.55;0.55;;;;;;;1.83;73.37;100463.41;5067440;28;20017;-72
2022/11/18 05:08:57;;;;;;;0.50;0.50;;;;;;;1.87;73.26;100471.19;5067953;28;20027;-72
2022/11/18 05:14:06;;;;;;;0.60;0.60;;;;;;;1.83;73.58;100483.91;5067946;28;20048;-73
2022/11/18 05:16:32;;;;;;;0.50;0.50;;;;;;;1.88;73.34;100488.25;5066286;28;20465;-74
2022/11/18 05:18:57;;;;;;;0.50;0.50;;;;;;;1.88;73.47;100491.69;5065863;28;20067;-74
2022/11/18 05:21:23;;;;;;;0.60;0.60;;;;;;;1.86;73.60;100490.78;5067432;28;20039;-74
2022/11/18 05:23:48;;;;;;;0.60;0.60;;;;;;;1.88;73.43;100489.16;5067616;28;20033;-74
2022/11/18 05:26:14;;;;;;;0.60;0.60;;;;;;;1.80;73.22;100488.03;5067471;28;20029;-74
2022/11/18 05:28:39;;;;;;;0.60;0.60;;;;;;;1.84;73.49;100502.66;5066219;28;20021;-75
2022/11/18 05:31:09;;;;;;;0.60;0.60;;;;;;;1.81;73.45;100503.44;5065785;28;20045;-74
2022/11/18 05:33:36;;;;;;;0.50;0.50;;;;;;;1.79;73.43;100501.69;5065948;28;20480;-74
2022/11/18 05:36:13;;;;;;;0.60;0.60;;;;;;;1.76;73.59;100517.81;5067338;28;20044;-75
2022/11/18 05:38:38;;;;;;;0.57;0.57;;;;;;;1.69;73.59;100511.63;5067423;28;20052;-74
2022/11/18 05:41:05;;;;;;;0.60;0.60;;;;;;;1.75;73.53;100512.63;5067075;28;20461;-76
2022/11/18 05:43:30;;;;;;;0.60;0.60;;;;;;;1.72;73.60;100521.09;5069001;28;20029;-77
2022/11/18 05:45:56;;;;;;;0.60;0.60;;;;;;;1.67;73.80;100520.97;5071003;28;20036;-76
2022/11/18 05:48:22;;;;;;;0.50;0.50;;;;;;;1.61;73.92;100526.75;5068517;28;20039;-75
2022/11/18 05:50:50;;;;;;;0.52;0.52;;;;;;;1.67;73.80;100531.22;5067337;28;20026;-77
2022/11/18 05:53:17;;;;;;;0.60;0.60;;;;;;;1.59;73.96;100522.41;5066822;28;20020;-76
2022/11/18 05:56:05;;;;;;;0.60;0.60;;;;;;;1.58;73.95;100526.66;5065998;28;20029;-75
2022/11/18 05:58:30;;;;;;;0.60;0.60;;;;;;;1.68;73.74;100535.50;5066845;28;20195;-74
2022/11/18 06:01:01;;;;;;;0.60;0.60;;;;;;;1.64;74.00;100543.91;5066635;28;20024;-72
2022/11/18 06:03:30;;;;;;;0.70;0.70;;;;;;;1.51;74.32;100539.22;5066895;28;20080;-75
2022/11/18 06:05:58;;;;;;;0.50;0.50;;;;;;;1.55;74.23;100546.19;5066588;28;20021;-75
2022/11/18 06:08:28;;;;;;;0.60;0.60;;;;;;;1.54;74.49;100539.31;5065027;28;20032;-75
2022/11/18 06:10:54;;;;;;;0.63;0.63;;;;;;;1.45;74.65;100535.66;5066517;28;20079;-75
2022/11/18 06:13:31;;;;;;;0.60;0.60;;;;;;;1.36;74.79;100528.56;5065285;28;20083;-75
2022/11/18 06:15:56;;;;;;;0.50;0.50;;;;;;;1.44;74.80;100543.28;5066515;28;20381;-76
2022/11/18 06:18:27;;;;;;;0.50;0.50;;;;;;;1.42;74.91;100543.22;5066023;28;20078;-75
2022/11/18 06:21:04;;;;;;;0.70;0.70;;;;;;;1.42;75.07;100544.94;5066014;28;20032;-74
2022/11/18 06:23:34;;;;;;;0.60;0.60;;;;;;;1.31;75.36;100540.34;5066152;28;20035;-72
2022/11/18 06:26:00;;;;;;;0.60;0.60;;;;;;;1.32;75.43;100548.88;5066215;28;20029;-76
2022/11/18 06:28:26;;;;;;;0.55;0.55;;;;;;;1.32;75.56;100551.44;5066549;28;20100;-76
2022/11/18 06:30:52;;;;;;;0.50;0.50;;;;;;;1.26;75.55;100538.47;5066129;28;20032;-77
2022/11/18 06:33:17;;;;;;;0.60;0.60;;;;;;;1.32;75.70;100559.13;5066156;28;20029;-77
2022/11/18 06:35:43;;;;;;;0.70;0.70;;;;;;;1.29;75.76;100559.91;5066101;28;20106;-76
2022/11/18 06:38:08;;;;;;;0.60;0.60;;;;;;;1.28;75.96;100562.41;5064836;28;20029;-76
2022/11/18 06:40:35;;;;;;;0.57;0.57;;;;;;;1.21;76.05;100566.47;5065721;28;20577;-76
2022/11/18 06:48:36;;;;;;;0.52;0.52;;;;;;;1.18;76.52;100576.59;5066147;28;20067;-76
2022/11/18 06:51:05;;;;;;;0.50;0.50;;;;;;;1.13;76.69;100576.44;5065538;28;20036;-76
2022/11/18 06:53:32;;;;;;;0.50;0.50;;;;;;;1.14;76.75;100579.84;5065743;28;20143;-75
2022/11/18 06:56:02;;;;;;;0.60;0.60;;;;;;;1.14;77.09;100585.84;5065764;28;20028;-75
2022/11/18 06:58:28;;;;;;;0.60;0.60;;;;;;;1.13;77.15;100584.09;5063937;28;20036;-75
2022/11/18 07:00:53;;;;;;;0.60;0.60;;;;;;;1.10;77.29;100589.13;5064907;28;20021;-75
2022/11/18 07:03:18;;;;;;;0.50;0.50;;;;;;;1.06;77.41;100579.59;5065053;28;20051;-74
2022/11/18 07:05:43;;;;;;;0.60;0.60;;;;;;;1.08;77.59;100590.75;5065822;28;20025;-75
2022/11/18 07:08:09;;;;;;;0.60;0.60;;;;;;;1.09;77.78;100589.91;5065345;28;20081;-75
2022/11/18 07:10:34;;;;;;;0.60;0.60;;;;;;;1.07;78.15;100594.97;5065300;28;20016;-74
2022/11/18 07:12:59;;;;;;;0.60;0.60;;;;;;;1.08;78.04;100603.53;5065625;28;20083;-75
2022/11/18 07:15:25;;;;;;;0.60;0.60;;;;;;;1.04;78.42;100599.16;5064073;28;20072;-76
2022/11/18 07:17:50;;;;;;;0.60;0.60;;;;;;;1.07;78.34;100604.38;5065164;28;20025;-75
2022/11/18 07:20:16;;;;;;;0.60;0.60;;;;;;;1.03;78.55;100612.72;5065238;28;20032;-76
2022/11/18 07:22:41;;;;;;;0.60;0.60;;;;;;;1.05;78.59;100618.78;5065164;28;20055;-76
2022/11/18 07:25:07;;;;;;;0.55;0.55;;;;;;;1.06;78.75;100621.38;5065403;28;20111;-75
2022/11/18 07:27:32;;;;;;;0.60;0.60;;;;;;;1.08;78.61;100611.22;5065574;28;20028;-75
2022/11/18 07:29:57;;;;;;;0.57;0.57;;;;;;;1.01;79.02;100604.16;5064741;28;20085;-76
2022/11/18 07:32:23;;;;;;;0.52;0.52;;;;;;;1.02;78.74;100618.66;5065062;28;20021;-76
2022/11/18 07:34:48;;;;;;;0.50;0.50;;;;;;;1.23;78.70;100615.97;5065489;28;20029;-76
2022/11/18 07:37:13;;;;;;;0.50;0.50;;;;;;;1.26;79.11;100631.44;5065137;28;20063;-75
2022/11/18 07:39:39;;;;;;;0.60;0.60;;;;;;;1.31;79.04;100618.78;5065125;28;20032;-75
2022/11/18 07:42:04;;;;;;;0.63;0.63;;;;;;;1.31;78.91;100613.66;5064016;28;20025;-76
2022/11/18 07:44:29;;;;;;;0.65;0.65;;;;;;;1.37;79.04;100619.00;5065576;28;20040;-76
2022/11/18 07:46:55;;;;;;;0.60;0.60;;;;;;;1.40;79.37;100623.31;5065549;28;20025;-75
2022/11/18 07:49:20;;;;;;;0.50;0.50;;;;;;;1.75;79.61;100631.28;5065295;28;20032;-75
2022/11/18 07:51:45;;;;;;;0.50;0.50;;;;;;;2.14;78.81;100621.34;5064844;28;20024;-74
2022/11/18 07:54:15;;;;;;;0.55;0.55;;;;;;;2.50;77.85;100638.59;5065239;28;20077;-75
2022/11/18 07:56:41;;;;;;;0.50;0.50;;;;;;;2.80;77.02;100632.59;5065083;28;20093;-75
2022/11/18 07:59:07;;;;;;;0.50;0.50;;;;;;;2.97;76.25;100638.16;5065150;28;20025;-75
2022/11/18 08:01:33;;;;;;;0.60;0.60;;;;;;;3.11;75.26;100642.81;5065128;28;20377;-75
2022/11/18 08:04:07;;;;;;;0.50;0.50;;;;;;;3.10;74.95;100649.63;5065477;28;20038;-75
2022/11/18 08:06:33;;;;;;;0.50;0.50;;;;;;;3.13;74.88;100640.28;5064822;28;20028;-75
2022/11/18 08:08:59;;;;;;;0.50;0.50;;;;;;;3.20;74.61;100648.16;5065331;28;20021;-75
2022/11/18 08:11:24;;;;;;;0.50;0.50;;;;;;;3.29;74.23;100638.97;5065080;28;20025;-76
2022/11/18 08:13:50;;;;;;;0.50;0.50;;;;;;;3.35;73.74;100657.94;5063760;28;20021;-76
2022/11/18 08:16:19;;;;;;;0.60;0.60;;;;;;;3.21;73.29;100652.47;5065285;28;20030;-76
2022/11/18 08:18:45;;;;;;;0.50;0.50;;;;;;;3.13;73.83;100661.66;5072733;28;20041;-76
2022/11/18 08:21:12;;;;;;;0.60;0.60;;;;;;;3.16;73.70;100658.31;5072511;28;20044;-75
2022/11/18 08:23:38;;;;;;;0.43;0.43;;;;;;;3.15;73.69;100657.44;5068876;28;20032;-76
2022/11/18 08:26:13;;;;;;;0.40;0.40;;;;;;;3.24;73.79;100655.94;5067498;28;20025;-77
2022/11/18 08:28:40;;;;;;;0.60;0.60;;;;;;;3.44;73.40;100657.31;5067472;28;20025;-76
2022/11/18 08:31:24;;;;;;;0.50;0.50;;;;;;;3.80;72.49;100653.03;5068686;28;20068;-76
2022/11/18 08:33:54;;;;;;;0.50;0.50;;;;;;;4.31;71.58;100657.59;5051158;28;20021;-77
2022/11/18 08:36:25;;;;;;;0.50;0.50;;;;;;;4.80;70.18;100670.56;5067599;28;20025;-73
2022/11/18 08:38:50;;;;;;;0.70;0.70;;;;;;;5.05;68.98;100655.59;5068636;28;20025;-76
2022/11/18 08:41:23;;;;;;;0.50;0.50;;;;;;;5.29;68.07;100664.59;5068313;28;20352;-74
2022/11/18 08:43:48;;;;;;;0.50;0.50;;;;;;;5.50;67.15;100640.06;5068501;28;20052;-75
2022/11/18 08:46:13;;;;;;;0.50;0.50;;;;;;;5.79;66.65;100660.25;5067251;28;20044;-74
2022/11/18 08:48:39;;;;;;;0.50;0.50;;;;;;;6.03;66.78;100670.91;5068283;28;20016;-75
2022/11/18 08:51:04;;;;;;;0.50;0.50;;;;;;;6.35;64.86;100661.91;5068214;28;20051;-75
2022/11/18 08:53:30;;;;;;;2.38;2.25;;;;;;;6.59;64.53;100656.22;5068378;28;20092;-74
2022/11/18 08:56:00;;;;;;;0.50;0.50;;;;;;;6.96;63.76;100660.06;5068232;28;20033;-75
2022/11/18 08:58:26;;;;;;;0.50;0.50;;;;;;;6.99;62.64;100668.72;5068228;28;20028;-75
2022/11/18 09:00:51;;;;;;;0.50;0.50;;;;;;;6.94;61.38;100658.34;5066718;28;20515;-74
2022/11/18 09:03:17;;;;;;;0.50;0.50;;;;;;;6.93;61.10;100661.75;5049971;28;20025;-75
2022/11/18 09:05:42;;;;;;;0.60;0.60;;;;;;;6.97;60.22;100664.34;5066694;28;20025;-75
2022/11/18 09:08:07;;;;;;;0.50;0.50;;;;;;;6.92;60.32;100665.19;5067686;28;20048;-75
2022/11/18 09:10:33;;;;;;;0.50;0.50;;;;;;;7.04;60.13;100664.47;5067616;28;20088;-75
2022/11/18 09:12:59;;;;;;;0.50;0.50;;;;;;;7.20;58.72;100659.44;5067869;28;20106;-75
2022/11/18 09:15:25;;;;;;;0.50;0.50;;;;;;;7.21;59.47;100674.09;5068162;28;20029;-74
2022/11/18 09:17:51;;;;;;;0.52;0.52;;;;;;;7.43;58.84;100675.16;5067566;28;20032;-75
2022/11/18 09:20:16;;;;;;;0.60;0.60;;;;;;;7.73;58.73;100677.97;5066124;28;20427;-74
2022/11/18 09:22:42;;;;;;;0.50;0.50;;;;;;;7.92;56.73;100670.38;5067325;28;20056;-75
2022/11/18 09:25:07;;;;;;;0.50;0.50;;;;;;;7.87;55.89;100667.75;5067588;28;20017;-74
2022/11/18 09:27:33;;;;;;;0.50;0.50;;;;;;;8.06;55.07;100673.91;5067705;28;20107;-73
2022/11/18 09:29:58;;;;;;;0.50;0.50;;;;;;;7.85;55.46;100664.28;5064771;28;20017;-75
2022/11/18 09:32:23;;;;;;;0.60;0.60;;;;;;;7.88;54.98;100678.94;5066115;28;20020;-75
2022/11/18 09:34:49;;;;;;;0.50;0.50;;;;;;;7.79;54.26;100679.75;5067512;28;20074;-75
2022/11/18 09:37:14;;;;;;;0.50;0.50;;;;;;;7.75;54.30;100688.31;5066048;28;20119;-73
2022/11/18 09:39:40;;;;;;;0.50;0.50;;;;;;;7.83;54.47;100685.81;5065795;28;20021;-73
2022/11/18 09:42:05;;;;;;;0.50;0.50;;;;;;;8.33;54.40;100709.38;5067326;28;20039;-73
2022/11/18 09:44:33;;;;;;;0.50;0.50;;;;;;;8.65;53.54;100704.44;5067321;28;20029;-73
2022/11/18 09:47:30;;;;;;;0.50;0.50;;;;;;;9.24;50.86;100697.69;5067434;28;20021;-75
2022/11/18 09:50:01;;;;;;;0.50;0.50;;;;;;;9.19;51.74;100705.44;5067130;28;20029;-74
2022/11/18 09:52:30;;;;;;;0.50;0.50;;;;;;;9.09;52.02;100701.97;5067064;28;20078;-75
2022/11/18 09:54:57;;;;;;;0.50;0.50;;;;;;;9.32;49.90;100703.75;5065836;28;20032;-75
2022/11/18 09:57:27;;;;;;;0.50;0.50;;;;;;;9.24;50.25;100714.09;5066983;28;20021;-75
2022/11/18 09:59:53;;;;;;;0.40;0.40;;;;;;;9.12;49.90;100711.50;5067248;28;20024;-74
2022/11/18 10:02:33;;;;;;;0.47;0.47;;;;;;;9.20;49.77;100702.00;5065692;28;20064;-72
2022/11/18 10:05:17;;;;;;;0.50;0.50;;;;;;;9.12;48.65;100714.09;5066968;28;20062;-75
2022/11/18 10:08:08;;;;;;;0.45;0.45;;;;;;;9.04;49.36;100701.97;5066720;28;20377;-74
2022/11/18 10:10:39;;;;;;;0.50;0.50;;;;;;;9.13;46.67;100718.38;5066632;28;20092;-76
2022/11/18 10:13:18;;;;;;;0.60;0.60;;;;;;;8.52;47.77;100710.34;5066667;28;20032;-74
2022/11/18 10:16:03;;;;;;;0.50;0.50;;;;;;;8.09;49.49;100714.44;5065503;28;20048;-74
2022/11/18 10:18:41;;;;;;;0.50;0.50;;;;;;;8.26;49.12;100717.13;5066230;28;20060;-75
2022/11/18 10:21:42;;;;;;;0.50;0.50;;;;;;;8.30;48.84;100723.19;5066463;28;20025;-75
2022/11/18 10:24:16;;;;;;;0.50;0.50;;;;;;;8.48;48.07;100739.69;5061870;28;20037;-74
2022/11/18 10:26:41;;;;;;;0.50;0.50;;;;;;;8.18;48.76;100729.13;5065243;28;20024;-73
2022/11/18 10:29:09;;;;;;;0.50;0.50;;;;;;;8.10;48.83;100723.06;5066161;28;20032;-75
2022/11/18 10:32:03;;;;;;;0.50;0.50;;;;;;;8.08;47.99;100730.81;5064331;28;20032;-75
2022/11/18 10:34:29;;;;;;;0.50;0.50;;;;;;;7.60;48.31;100726.13;5065021;28;20021;-75
2022/11/18 10:37:24;;;;;;;0.50;0.50;;;;;;;7.56;49.81;100734.69;5064284;28;20025;-72
2022/11/18 10:40:01;;;;;;;0.50;0.50;;;;;;;7.86;49.44;100735.78;5066330;28;20451;-75
2022/11/18 10:42:45;;;;;;;0.50;0.50;;;;;;;7.84;49.20;100723.72;5064367;28;20036;-75
2022/11/18 10:45:27;;;;;;;0.50;0.50;;;;;;;7.97;49.52;100733.28;5066677;28;20024;-74
2022/11/18 10:47:59;;;;;;;0.50;0.50;;;;;;;7.79;49.65;100727.16;5067016;28;20017;-74
2022/11/18 10:50:40;;;;;;;0.60;0.60;;;;;;;8.15;48.30;100750.69;5071817;28;20025;-76
2022/11/18 10:53:32;;;;;;;0.50;0.50;;;;;;;7.92;48.69;100735.00;5067327;28;20105;-74
2022/11/18 10:56:00;;;;;;;0.60;0.60;;;;;;;8.36;46.35;100725.81;5066426;28;20040;-74
2022/11/18 10:58:29;;;;;;;0.50;0.50;;;;;;;8.13;48.28;100736.00;5065999;28;20029;-74
2022/11/18 11:01:19;;;;;;;0.50;0.50;;;;;;;8.26;48.13;100750.75;5064326;28;20029;-74
2022/11/18 11:04:12;;;;;;;0.50;0.50;;;;;;;8.40;46.14;100753.41;5066051;28;20029;-75
2022/11/18 11:06:57;;;;;;;;;;;;;;;;;;;;;
2022/11/18 11:09:42;;;;;;;0.50;0.50;;;;;;;8.19;47.12;100730.88;5066043;28;20045;-74
2022/11/18 11:12:55;;;;;;;0.50;0.50;;;;;;;8.34;47.14;100750.78;5064283;28;20025;-75
2022/11/18 11:16:23;;;;;;;;;;;;;;;;;;;;;
2022/11/18 11:19:31;;;;;;;0.50;0.50;;;;;;;6.66;48.34;100734.56;5065092;28;20101;-76
2022/11/18 11:22:30;;;;;;;0.50;0.50;;;;;;;5.66;50.75;100727.88;5053811;28;20064;-76
2022/11/18 11:25:06;;;;;;;0.50;0.50;;;;;;;5.27;52.45;100765.81;5064240;28;20068;-76
2022/11/18 11:28:14;;;;;;;0.50;0.50;;;;;;;4.52;53.37;100676.88;5047432;28;20024;-74
2022/11/18 11:31:19;;;;;;;0.50;0.50;;;;;;;4.84;54.07;100758.94;5065542;28;20047;-74
2022/11/18 11:33:57;;;;;;;0.50;0.50;;;;;;;4.68;54.17;100757.78;5065699;28;20040;-77
2022/11/18 11:37:04;;;;;;;0.50;0.50;;;;;;;4.53;54.88;100748.03;5064264;28;20092;-76
2022/11/18 11:40:08;;;;;;;0.60;0.60;;;;;;;4.48;55.02;100755.63;5065570;28;20032;-77
2022/11/18 11:42:52;;;;;;;0.60;0.60;;;;;;;4.47;55.35;100744.47;5065667;28;20025;-76
2022/11/18 11:45:35;;;;;;;0.50;0.50;;;;;;;4.40;55.53;100752.00;5063904;28;20113;-75
2022/11/18 11:48:50;;;;;;;0.50;0.50;;;;;;;4.42;55.86;100743.53;5065400;28;20017;-74
2022/11/18 11:51:39;;;;;;;0.50;0.50;;;;;;;4.24;56.35;100753.34;5063758;28;20033;-74
2022/11/18 11:54:30;;;;;;;0.50;0.50;;;;;;;4.31;56.26;100748.38;5068004;28;20021;-74
2022/11/18 11:57:15;;;;;;;0.50;0.50;;;;;;;4.19;56.74;100748.13;5068139;28;20093;-74
2022/11/18 12:00:13;;;;;;;1.25;1.25;;;;;;;4.18;56.85;100739.56;5069539;28;20101;-73
2022/11/18 12:03:19;;;;;;;0.50;0.50;;;;;;;3.69;56.38;100652.78;5059389;28;20056;-75
2022/11/18 12:05:50;;;;;;;0.50;0.50;;;;;;;3.76;56.55;100669.19;5069303;28;20056;-75
2022/11/18 12:08:21;;;;;;;0.55;0.55;;;;;;;3.93;56.61;100700.41;5067616;28;20024;-74
2022/11/18 12:10:49;;;;;;;0.60;0.60;;;;;;;4.16;56.82;100766.03;5068970;28;20088;-73
2022/11/18 12:13:52;;;;;;;0.60;0.60;;;;;;;4.19;56.73;100764.41;5067340;28;20122;-74